sensor_id;sensor_type;location;lat;lon;timestamp;P1;durP1;ratioP1;P2;durP2;ratioP2
13807;SDS011;40769;51.512;5.494;2023-12-22T00:00:23;4.03;;;1.85;;
13807;SDS011;40769;51.512;5.494;2023-12-22T00:02:49;6.40;;;1.95;;
13807;SDS011;40769;51.512;5.494;2023-12-22T00:05:14;4.13;;;1.60;;
13807;SDS011;40769;51.512;5.494;2023-12-22T00:07:40;4.03;;;1.83;;
13807;SDS011;40769;51.512;5.494;2023-12-22T00:10:06;7.50;;;1.80;;
13807;SDS011;40769;51.512;5.494;2023-12-22T00:12:32;5.13;;;1.88;;
13807;SDS011;40769;51.512;5.494;2023-12-22T00:14:58;6.45;;;2.13;;
13807;SDS011;40769;51.512;5.494;2023-12-22T00:17:23;4.47;;;1.98;;
13807;SDS011;40769;51.512;5.494;2023-12-22T00:19:49;5.65;;;2.25;;
13807;SDS011;40769;51.512;5.494;2023-12-22T00:22:15;4.50;;;1.98;;
13807;SDS011;40769;51.512;5.494;2023-12-22T00:24:41;3.72;;;1.85;;
13807;SDS011;40769;51.512;5.494;2023-12-22T00:27:06;4.60;;;1.77;;
13807;SDS011;40769;51.512;5.494;2023-12-22T00:29:32;10.52;;;3.33;;
13807;SDS011;40769;51.512;5.494;2023-12-22T00:32:00;4.22;;;1.65;;
13807;SDS011;40769;51.512;5.494;2023-12-22T00:34:26;3.65;;;1.73;;
13807;SDS011;40769;51.512;5.494;2023-12-22T00:36:52;4.63;;;1.73;;
13807;SDS011;40769;51.512;5.494;2023-12-22T00:39:17;7.03;;;2.20;;
13807;SDS011;40769;51.512;5.494;2023-12-22T00:41:43;8.23;;;2.22;;
13807;SDS011;40769;51.512;5.494;2023-12-22T00:44:09;6.22;;;2.13;;
13807;SDS011;40769;51.512;5.494;2023-12-22T00:46:34;4.75;;;1.90;;
13807;SDS011;40769;51.512;5.494;2023-12-22T00:49:00;6.88;;;2.45;;
13807;SDS011;40769;51.512;5.494;2023-12-22T00:51:25;5.85;;;2.17;;
13807;SDS011;40769;51.512;5.494;2023-12-22T00:53:54;4.18;;;2.08;;
13807;SDS011;40769;51.512;5.494;2023-12-22T00:56:19;3.45;;;1.60;;
13807;SDS011;40769;51.512;5.494;2023-12-22T00:58:45;7.28;;;2.45;;
13807;SDS011;40769;51.512;5.494;2023-12-22T01:01:10;4.35;;;2.03;;
13807;SDS011;40769;51.512;5.494;2023-12-22T01:03:36;8.93;;;2.70;;
13807;SDS011;40769;51.512;5.494;2023-12-22T01:06:02;5.68;;;2.15;;
13807;SDS011;40769;51.512;5.494;2023-12-22T01:08:27;7.15;;;2.38;;
13807;SDS011;40769;51.512;5.494;2023-12-22T01:10:53;5.45;;;2.00;;
13807;SDS011;40769;51.512;5.494;2023-12-22T01:13:18;7.32;;;2.45;;
13807;SDS011;40769;51.512;5.494;2023-12-22T01:15:44;7.35;;;2.60;;
13807;SDS011;40769;51.512;5.494;2023-12-22T01:18:10;7.78;;;2.60;;
13807;SDS011;40769;51.512;5.494;2023-12-22T01:20:36;8.75;;;2.70;;
13807;SDS011;40769;51.512;5.494;2023-12-22T01:23:01;8.10;;;3.30;;
13807;SDS011;40769;51.512;5.494;2023-12-22T01:25:27;6.90;;;2.55;;
13807;SDS011;40769;51.512;5.494;2023-12-22T01:27:53;7.82;;;2.35;;
13807;SDS011;40769;51.512;5.494;2023-12-22T01:30:19;8.23;;;2.58;;
13807;SDS011;40769;51.512;5.494;2023-12-22T01:32:44;5.50;;;2.17;;
13807;SDS011;40769;51.512;5.494;2023-12-22T01:35:10;11.73;;;3.83;;
13807;SDS011;40769;51.512;5.494;2023-12-22T01:37:36;8.77;;;3.35;;
13807;SDS011;40769;51.512;5.494;2023-12-22T01:40:02;12.88;;;3.75;;
13807;SDS011;40769;51.512;5.494;2023-12-22T01:42:29;12.77;;;3.42;;
13807;SDS011;40769;51.512;5.494;2023-12-22T01:44:54;11.63;;;3.22;;
13807;SDS011;40769;51.512;5.494;2023-12-22T01:47:20;6.97;;;2.70;;
13807;SDS011;40769;51.512;5.494;2023-12-22T01:49:46;10.93;;;3.38;;
13807;SDS011;40769;51.512;5.494;2023-12-22T01:52:13;10.00;;;3.67;;
13807;SDS011;40769;51.512;5.494;2023-12-22T01:54:39;9.57;;;3.40;;
13807;SDS011;40769;51.512;5.494;2023-12-22T01:57:05;13.45;;;3.75;;
13807;SDS011;40769;51.512;5.494;2023-12-22T01:59:31;9.10;;;3.40;;
13807;SDS011;40769;51.512;5.494;2023-12-22T02:02:00;7.22;;;2.70;;
13807;SDS011;40769;51.512;5.494;2023-12-22T02:04:27;10.98;;;3.13;;
13807;SDS011;40769;51.512;5.494;2023-12-22T02:09:36;9.25;;;3.05;;
13807;SDS011;40769;51.512;5.494;2023-12-22T02:12:02;7.03;;;3.25;;
13807;SDS011;40769;51.512;5.494;2023-12-22T02:14:40;12.57;;;3.85;;
13807;SDS011;40769;51.512;5.494;2023-12-22T02:17:10;7.28;;;2.50;;
13807;SDS011;40769;51.512;5.494;2023-12-22T02:19:43;12.27;;;3.50;;
13807;SDS011;40769;51.512;5.494;2023-12-22T02:22:11;14.70;;;3.47;;
13807;SDS011;40769;51.512;5.494;2023-12-22T02:24:37;7.90;;;3.45;;
13807;SDS011;40769;51.512;5.494;2023-12-22T02:27:05;8.70;;;3.25;;
13807;SDS011;40769;51.512;5.494;2023-12-22T02:29:32;8.70;;;3.63;;
13807;SDS011;40769;51.512;5.494;2023-12-22T02:32:02;13.27;;;3.83;;
13807;SDS011;40769;51.512;5.494;2023-12-22T02:34:35;11.27;;;4.00;;
13807;SDS011;40769;51.512;5.494;2023-12-22T02:37:05;9.40;;;3.15;;
13807;SDS011;40769;51.512;5.494;2023-12-22T02:39:33;13.82;;;3.55;;
13807;SDS011;40769;51.512;5.494;2023-12-22T02:42:00;11.02;;;3.15;;
13807;SDS011;40769;51.512;5.494;2023-12-22T02:44:27;15.93;;;4.45;;
13807;SDS011;40769;51.512;5.494;2023-12-22T02:46:52;8.75;;;3.50;;
13807;SDS011;40769;51.512;5.494;2023-12-22T02:49:18;13.07;;;3.88;;
13807;SDS011;40769;51.512;5.494;2023-12-22T02:51:44;9.20;;;3.55;;
13807;SDS011;40769;51.512;5.494;2023-12-22T02:54:10;11.82;;;3.22;;
13807;SDS011;40769;51.512;5.494;2023-12-22T02:56:35;9.60;;;3.05;;
13807;SDS011;40769;51.512;5.494;2023-12-22T02:59:01;7.43;;;2.30;;
13807;SDS011;40769;51.512;5.494;2023-12-22T03:01:27;10.82;;;3.17;;
13807;SDS011;40769;51.512;5.494;2023-12-22T03:03:52;11.68;;;2.85;;
13807;SDS011;40769;51.512;5.494;2023-12-22T03:06:18;9.15;;;2.70;;
13807;SDS011;40769;51.512;5.494;2023-12-22T03:08:43;6.85;;;3.20;;
13807;SDS011;40769;51.512;5.494;2023-12-22T03:11:09;10.20;;;3.10;;
13807;SDS011;40769;51.512;5.494;2023-12-22T03:13:35;6.15;;;2.30;;
13807;SDS011;40769;51.512;5.494;2023-12-22T03:16:00;4.68;;;1.98;;
13807;SDS011;40769;51.512;5.494;2023-12-22T03:18:26;8.63;;;2.60;;
13807;SDS011;40769;51.512;5.494;2023-12-22T03:20:51;7.35;;;2.85;;
13807;SDS011;40769;51.512;5.494;2023-12-22T03:23:17;8.25;;;3.10;;
13807;SDS011;40769;51.512;5.494;2023-12-22T03:25:42;5.50;;;2.72;;
13807;SDS011;40769;51.512;5.494;2023-12-22T03:28:08;8.13;;;2.63;;
13807;SDS011;40769;51.512;5.494;2023-12-22T03:30:34;7.20;;;2.67;;
13807;SDS011;40769;51.512;5.494;2023-12-22T03:33:00;7.57;;;2.92;;
13807;SDS011;40769;51.512;5.494;2023-12-22T03:35:26;6.28;;;2.22;;
13807;SDS011;40769;51.512;5.494;2023-12-22T03:37:52;6.68;;;2.38;;
13807;SDS011;40769;51.512;5.494;2023-12-22T03:40:17;13.23;;;4.40;;
13807;SDS011;40769;51.512;5.494;2023-12-22T03:42:43;10.50;;;3.65;;
13807;SDS011;40769;51.512;5.494;2023-12-22T03:45:09;10.45;;;2.95;;
13807;SDS011;40769;51.512;5.494;2023-12-22T03:47:34;5.90;;;2.20;;
13807;SDS011;40769;51.512;5.494;2023-12-22T03:50:00;7.43;;;2.60;;
13807;SDS011;40769;51.512;5.494;2023-12-22T03:52:26;12.13;;;3.40;;
13807;SDS011;40769;51.512;5.494;2023-12-22T03:54:51;6.05;;;2.40;;
13807;SDS011;40769;51.512;5.494;2023-12-22T03:57:17;7.57;;;2.80;;
13807;SDS011;40769;51.512;5.494;2023-12-22T03:59:43;7.13;;;2.33;;
13807;SDS011;40769;51.512;5.494;2023-12-22T04:02:08;9.20;;;3.33;;
13807;SDS011;40769;51.512;5.494;2023-12-22T04:04:38;9.02;;;2.70;;
13807;SDS011;40769;51.512;5.494;2023-12-22T04:07:03;12.55;;;3.95;;
13807;SDS011;40769;51.512;5.494;2023-12-22T04:09:29;8.40;;;3.33;;
13807;SDS011;40769;51.512;5.494;2023-12-22T04:11:55;8.82;;;2.95;;
13807;SDS011;40769;51.512;5.494;2023-12-22T04:14:20;6.70;;;2.83;;
13807;SDS011;40769;51.512;5.494;2023-12-22T04:16:46;11.50;;;2.88;;
13807;SDS011;40769;51.512;5.494;2023-12-22T04:19:12;6.30;;;2.72;;
13807;SDS011;40769;51.512;5.494;2023-12-22T04:21:37;8.77;;;2.60;;
13807;SDS011;40769;51.512;5.494;2023-12-22T04:24:03;6.97;;;2.28;;
13807;SDS011;40769;51.512;5.494;2023-12-22T04:26:29;7.03;;;2.08;;
13807;SDS011;40769;51.512;5.494;2023-12-22T04:28:55;7.88;;;2.85;;
13807;SDS011;40769;51.512;5.494;2023-12-22T04:31:20;9.27;;;2.45;;
13807;SDS011;40769;51.512;5.494;2023-12-22T04:33:46;7.78;;;2.65;;
13807;SDS011;40769;51.512;5.494;2023-12-22T04:36:11;6.72;;;2.47;;
13807;SDS011;40769;51.512;5.494;2023-12-22T04:38:37;7.47;;;3.00;;
13807;SDS011;40769;51.512;5.494;2023-12-22T04:41:03;6.93;;;2.67;;
13807;SDS011;40769;51.512;5.494;2023-12-22T04:43:28;7.85;;;2.85;;
13807;SDS011;40769;51.512;5.494;2023-12-22T04:45:54;9.02;;;2.92;;
13807;SDS011;40769;51.512;5.494;2023-12-22T04:48:20;4.65;;;2.08;;
13807;SDS011;40769;51.512;5.494;2023-12-22T04:50:45;7.93;;;2.40;;
13807;SDS011;40769;51.512;5.494;2023-12-22T04:53:11;6.35;;;2.40;;
13807;SDS011;40769;51.512;5.494;2023-12-22T04:55:36;5.68;;;2.38;;
13807;SDS011;40769;51.512;5.494;2023-12-22T04:58:02;7.30;;;2.45;;
13807;SDS011;40769;51.512;5.494;2023-12-22T05:00:28;6.22;;;1.92;;
13807;SDS011;40769;51.512;5.494;2023-12-22T05:02:53;4.65;;;1.98;;
13807;SDS011;40769;51.512;5.494;2023-12-22T05:05:19;6.75;;;2.38;;
13807;SDS011;40769;51.512;5.494;2023-12-22T05:07:45;9.85;;;2.67;;
13807;SDS011;40769;51.512;5.494;2023-12-22T05:10:10;6.75;;;2.30;;
13807;SDS011;40769;51.512;5.494;2023-12-22T05:12:36;5.13;;;1.92;;
13807;SDS011;40769;51.512;5.494;2023-12-22T05:15:02;6.22;;;2.10;;
13807;SDS011;40769;51.512;5.494;2023-12-22T05:17:27;6.47;;;2.28;;
13807;SDS011;40769;51.512;5.494;2023-12-22T05:19:53;6.72;;;2.42;;
13807;SDS011;40769;51.512;5.494;2023-12-22T05:22:19;7.03;;;2.28;;
13807;SDS011;40769;51.512;5.494;2023-12-22T05:24:44;5.53;;;1.80;;
13807;SDS011;40769;51.512;5.494;2023-12-22T05:27:10;5.32;;;2.20;;
13807;SDS011;40769;51.512;5.494;2023-12-22T05:29:35;5.10;;;2.08;;
13807;SDS011;40769;51.512;5.494;2023-12-22T05:32:01;3.05;;;1.77;;
13807;SDS011;40769;51.512;5.494;2023-12-22T05:34:26;4.95;;;2.05;;
13807;SDS011;40769;51.512;5.494;2023-12-22T05:36:52;4.45;;;1.90;;
13807;SDS011;40769;51.512;5.494;2023-12-22T05:39:17;3.00;;;1.45;;
13807;SDS011;40769;51.512;5.494;2023-12-22T05:41:43;7.82;;;2.60;;
13807;SDS011;40769;51.512;5.494;2023-12-22T05:44:09;5.57;;;2.20;;
13807;SDS011;40769;51.512;5.494;2023-12-22T05:46:37;8.18;;;3.22;;
13807;SDS011;40769;51.512;5.494;2023-12-22T05:49:03;8.15;;;3.40;;
13807;SDS011;40769;51.512;5.494;2023-12-22T05:51:35;6.25;;;3.08;;
13807;SDS011;40769;51.512;5.494;2023-12-22T05:54:05;7.90;;;3.78;;
13807;SDS011;40769;51.512;5.494;2023-12-22T05:56:32;8.15;;;3.55;;
13807;SDS011;40769;51.512;5.494;2023-12-22T05:58:58;11.30;;;4.03;;
13807;SDS011;40769;51.512;5.494;2023-12-22T06:01:24;7.57;;;3.83;;
13807;SDS011;40769;51.512;5.494;2023-12-22T06:03:50;7.53;;;3.17;;
13807;SDS011;40769;51.512;5.494;2023-12-22T06:06:18;13.00;;;4.30;;
13807;SDS011;40769;51.512;5.494;2023-12-22T06:08:43;8.90;;;4.20;;
13807;SDS011;40769;51.512;5.494;2023-12-22T06:11:09;14.65;;;4.20;;
13807;SDS011;40769;51.512;5.494;2023-12-22T06:13:35;10.60;;;3.45;;
13807;SDS011;40769;51.512;5.494;2023-12-22T06:16:01;14.30;;;4.50;;
13807;SDS011;40769;51.512;5.494;2023-12-22T06:18:26;9.18;;;3.40;;
13807;SDS011;40769;51.512;5.494;2023-12-22T06:20:52;9.63;;;3.55;;
13807;SDS011;40769;51.512;5.494;2023-12-22T06:23:18;9.48;;;3.40;;
13807;SDS011;40769;51.512;5.494;2023-12-22T06:25:43;11.70;;;4.43;;
13807;SDS011;40769;51.512;5.494;2023-12-22T06:28:13;12.68;;;4.82;;
13807;SDS011;40769;51.512;5.494;2023-12-22T06:30:41;15.63;;;5.30;;
13807;SDS011;40769;51.512;5.494;2023-12-22T06:33:08;13.95;;;4.40;;
13807;SDS011;40769;51.512;5.494;2023-12-22T06:35:33;14.02;;;5.30;;
13807;SDS011;40769;51.512;5.494;2023-12-22T06:37:59;13.10;;;5.00;;
13807;SDS011;40769;51.512;5.494;2023-12-22T06:40:34;17.15;;;5.85;;
13807;SDS011;40769;51.512;5.494;2023-12-22T06:43:03;9.60;;;4.28;;
13807;SDS011;40769;51.512;5.494;2023-12-22T06:45:29;13.32;;;4.70;;
13807;SDS011;40769;51.512;5.494;2023-12-22T06:47:55;10.95;;;4.03;;
13807;SDS011;40769;51.512;5.494;2023-12-22T06:50:21;9.00;;;3.42;;
13807;SDS011;40769;51.512;5.494;2023-12-22T06:52:47;15.40;;;4.75;;
13807;SDS011;40769;51.512;5.494;2023-12-22T06:55:14;14.82;;;4.82;;
13807;SDS011;40769;51.512;5.494;2023-12-22T06:57:39;9.50;;;4.18;;
13807;SDS011;40769;51.512;5.494;2023-12-22T07:00:05;12.98;;;4.95;;
13807;SDS011;40769;51.512;5.494;2023-12-22T07:02:32;13.43;;;5.85;;
13807;SDS011;40769;51.512;5.494;2023-12-22T07:07:50;9.70;;;4.07;;
13807;SDS011;40769;51.512;5.494;2023-12-22T07:10:15;17.38;;;6.28;;
13807;SDS011;40769;51.512;5.494;2023-12-22T07:12:41;14.48;;;5.60;;
13807;SDS011;40769;51.512;5.494;2023-12-22T07:15:07;15.63;;;5.22;;
13807;SDS011;40769;51.512;5.494;2023-12-22T07:17:33;10.05;;;4.10;;
13807;SDS011;40769;51.512;5.494;2023-12-22T07:19:59;14.55;;;5.95;;
13807;SDS011;40769;51.512;5.494;2023-12-22T07:22:28;19.33;;;6.60;;
13807;SDS011;40769;51.512;5.494;2023-12-22T07:24:53;15.27;;;5.40;;
13807;SDS011;40769;51.512;5.494;2023-12-22T07:27:20;16.73;;;6.07;;
13807;SDS011;40769;51.512;5.494;2023-12-22T07:29:55;13.85;;;4.95;;
13807;SDS011;40769;51.512;5.494;2023-12-22T07:32:20;12.13;;;4.28;;
13807;SDS011;40769;51.512;5.494;2023-12-22T07:34:46;12.00;;;4.60;;
13807;SDS011;40769;51.512;5.494;2023-12-22T07:37:11;12.25;;;4.90;;
13807;SDS011;40769;51.512;5.494;2023-12-22T07:39:39;20.00;;;5.80;;
13807;SDS011;40769;51.512;5.494;2023-12-22T07:42:04;16.48;;;5.18;;
13807;SDS011;40769;51.512;5.494;2023-12-22T07:44:31;12.43;;;4.68;;
13807;SDS011;40769;51.512;5.494;2023-12-22T07:47:00;8.82;;;3.00;;
13807;SDS011;40769;51.512;5.494;2023-12-22T07:49:25;11.15;;;4.47;;
13807;SDS011;40769;51.512;5.494;2023-12-22T07:51:52;9.23;;;3.80;;
13807;SDS011;40769;51.512;5.494;2023-12-22T07:54:18;13.05;;;4.53;;
13807;SDS011;40769;51.512;5.494;2023-12-22T07:56:44;9.98;;;4.00;;
13807;SDS011;40769;51.512;5.494;2023-12-22T07:59:10;13.00;;;4.57;;
13807;SDS011;40769;51.512;5.494;2023-12-22T08:01:35;14.10;;;4.88;;
13807;SDS011;40769;51.512;5.494;2023-12-22T08:04:01;9.27;;;3.58;;
13807;SDS011;40769;51.512;5.494;2023-12-22T08:06:26;7.88;;;3.75;;
13807;SDS011;40769;51.512;5.494;2023-12-22T08:08:54;13.07;;;4.30;;
13807;SDS011;40769;51.512;5.494;2023-12-22T08:11:20;10.48;;;4.35;;
13807;SDS011;40769;51.512;5.494;2023-12-22T08:13:45;10.85;;;4.45;;
13807;SDS011;40769;51.512;5.494;2023-12-22T08:16:12;7.20;;;3.50;;
13807;SDS011;40769;51.512;5.494;2023-12-22T08:18:37;9.65;;;4.13;;
13807;SDS011;40769;51.512;5.494;2023-12-22T08:21:03;11.57;;;4.32;;
13807;SDS011;40769;51.512;5.494;2023-12-22T08:23:29;11.10;;;4.53;;
13807;SDS011;40769;51.512;5.494;2023-12-22T08:25:54;10.27;;;4.22;;
13807;SDS011;40769;51.512;5.494;2023-12-22T08:28:20;9.93;;;3.67;;
13807;SDS011;40769;51.512;5.494;2023-12-22T08:30:46;8.38;;;3.53;;
13807;SDS011;40769;51.512;5.494;2023-12-22T08:33:11;7.75;;;3.42;;
13807;SDS011;40769;51.512;5.494;2023-12-22T08:35:38;6.10;;;3.05;;
13807;SDS011;40769;51.512;5.494;2023-12-22T08:38:03;8.25;;;3.08;;
13807;SDS011;40769;51.512;5.494;2023-12-22T08:40:29;8.48;;;3.92;;
13807;SDS011;40769;51.512;5.494;2023-12-22T08:42:54;7.15;;;4.35;;
13807;SDS011;40769;51.512;5.494;2023-12-22T08:45:24;6.85;;;3.28;;
13807;SDS011;40769;51.512;5.494;2023-12-22T08:47:56;8.48;;;3.15;;
13807;SDS011;40769;51.512;5.494;2023-12-22T08:50:25;7.32;;;3.90;;
13807;SDS011;40769;51.512;5.494;2023-12-22T08:52:51;8.35;;;5.45;;
13807;SDS011;40769;51.512;5.494;2023-12-22T08:55:17;7.78;;;4.50;;
13807;SDS011;40769;51.512;5.494;2023-12-22T08:57:42;7.15;;;3.55;;
13807;SDS011;40769;51.512;5.494;2023-12-22T09:00:08;8.05;;;3.35;;
13807;SDS011;40769;51.512;5.494;2023-12-22T09:02:34;6.45;;;3.13;;
13807;SDS011;40769;51.512;5.494;2023-12-22T09:05:00;5.95;;;2.75;;
13807;SDS011;40769;51.512;5.494;2023-12-22T09:07:26;4.82;;;2.70;;
13807;SDS011;40769;51.512;5.494;2023-12-22T09:09:52;5.68;;;2.67;;
13807;SDS011;40769;51.512;5.494;2023-12-22T09:12:18;4.68;;;2.30;;
13807;SDS011;40769;51.512;5.494;2023-12-22T09:14:46;5.93;;;2.30;;
13807;SDS011;40769;51.512;5.494;2023-12-22T09:17:11;7.85;;;2.40;;
13807;SDS011;40769;51.512;5.494;2023-12-22T09:19:37;3.53;;;1.85;;
13807;SDS011;40769;51.512;5.494;2023-12-22T09:22:03;5.30;;;2.30;;
13807;SDS011;40769;51.512;5.494;2023-12-22T09:24:31;5.65;;;2.97;;
13807;SDS011;40769;51.512;5.494;2023-12-22T09:26:57;4.20;;;2.08;;
13807;SDS011;40769;51.512;5.494;2023-12-22T09:29:27;4.68;;;2.42;;
13807;SDS011;40769;51.512;5.494;2023-12-22T09:32:00;4.72;;;2.20;;
13807;SDS011;40769;51.512;5.494;2023-12-22T09:34:26;4.00;;;1.63;;
13807;SDS011;40769;51.512;5.494;2023-12-22T09:36:54;4.55;;;1.60;;
13807;SDS011;40769;51.512;5.494;2023-12-22T09:39:21;4.25;;;1.38;;
13807;SDS011;40769;51.512;5.494;2023-12-22T09:41:48;2.88;;;1.60;;
13807;SDS011;40769;51.512;5.494;2023-12-22T09:44:18;2.97;;;1.42;;
13807;SDS011;40769;51.512;5.494;2023-12-22T09:46:46;2.28;;;1.50;;
13807;SDS011;40769;51.512;5.494;2023-12-22T09:49:17;4.68;;;1.50;;
13807;SDS011;40769;51.512;5.494;2023-12-22T09:51:44;3.75;;;1.45;;
13807;SDS011;40769;51.512;5.494;2023-12-22T09:54:10;3.17;;;1.50;;
13807;SDS011;40769;51.512;5.494;2023-12-22T09:56:37;2.28;;;1.15;;
13807;SDS011;40769;51.512;5.494;2023-12-22T09:59:09;2.63;;;1.30;;
13807;SDS011;40769;51.512;5.494;2023-12-22T10:01:37;1.58;;;1.00;;
13807;SDS011;40769;51.512;5.494;2023-12-22T10:04:07;2.60;;;1.20;;
13807;SDS011;40769;51.512;5.494;2023-12-22T10:06:33;2.40;;;1.35;;
13807;SDS011;40769;51.512;5.494;2023-12-22T10:08:59;2.47;;;1.17;;
13807;SDS011;40769;51.512;5.494;2023-12-22T10:11:25;3.53;;;1.30;;
13807;SDS011;40769;51.512;5.494;2023-12-22T10:13:53;2.13;;;1.23;;
13807;SDS011;40769;51.512;5.494;2023-12-22T10:16:21;3.55;;;0.90;;
13807;SDS011;40769;51.512;5.494;2023-12-22T10:18:47;1.30;;;0.90;;
13807;SDS011;40769;51.512;5.494;2023-12-22T10:21:13;1.77;;;1.20;;
13807;SDS011;40769;51.512;5.494;2023-12-22T10:23:39;3.17;;;1.42;;
13807;SDS011;40769;51.512;5.494;2023-12-22T10:26:04;3.35;;;1.20;;
13807;SDS011;40769;51.512;5.494;2023-12-22T10:28:30;3.15;;;1.25;;
13807;SDS011;40769;51.512;5.494;2023-12-22T10:30:55;3.08;;;1.20;;
13807;SDS011;40769;51.512;5.494;2023-12-22T10:33:24;2.05;;;1.23;;
13807;SDS011;40769;51.512;5.494;2023-12-22T10:35:49;3.50;;;1.20;;
13807;SDS011;40769;51.512;5.494;2023-12-22T10:38:18;2.63;;;1.27;;
13807;SDS011;40769;51.512;5.494;2023-12-22T10:40:45;2.40;;;1.20;;
13807;SDS011;40769;51.512;5.494;2023-12-22T10:43:11;2.15;;;1.10;;
13807;SDS011;40769;51.512;5.494;2023-12-22T10:45:38;2.97;;;1.48;;
13807;SDS011;40769;51.512;5.494;2023-12-22T10:48:05;1.83;;;1.00;;
13807;SDS011;40769;51.512;5.494;2023-12-22T10:50:32;1.98;;;1.00;;
13807;SDS011;40769;51.512;5.494;2023-12-22T10:52:57;2.75;;;1.30;;
13807;SDS011;40769;51.512;5.494;2023-12-22T10:55:23;3.75;;;1.35;;
13807;SDS011;40769;51.512;5.494;2023-12-22T10:57:49;2.13;;;1.05;;
13807;SDS011;40769;51.512;5.494;2023-12-22T11:00:15;2.88;;;1.23;;
13807;SDS011;40769;51.512;5.494;2023-12-22T11:02:42;3.78;;;1.60;;
13807;SDS011;40769;51.512;5.494;2023-12-22T11:05:10;2.08;;;1.30;;
13807;SDS011;40769;51.512;5.494;2023-12-22T11:07:37;2.72;;;1.10;;
13807;SDS011;40769;51.512;5.494;2023-12-22T11:10:04;3.50;;;1.50;;
13807;SDS011;40769;51.512;5.494;2023-12-22T11:12:37;2.33;;;1.25;;
13807;SDS011;40769;51.512;5.494;2023-12-22T11:15:04;2.45;;;1.02;;
13807;SDS011;40769;51.512;5.494;2023-12-22T11:20:37;3.03;;;1.27;;
13807;SDS011;40769;51.512;5.494;2023-12-22T11:23:06;3.30;;;1.70;;
13807;SDS011;40769;51.512;5.494;2023-12-22T11:25:34;4.85;;;1.65;;
13807;SDS011;40769;51.512;5.494;2023-12-22T11:28:01;3.33;;;1.70;;
13807;SDS011;40769;51.512;5.494;2023-12-22T11:30:28;2.78;;;1.33;;
13807;SDS011;40769;51.512;5.494;2023-12-22T11:32:55;3.53;;;1.40;;
13807;SDS011;40769;51.512;5.494;2023-12-22T11:35:23;3.22;;;1.50;;
13807;SDS011;40769;51.512;5.494;2023-12-22T11:37:49;2.08;;;1.15;;
13807;SDS011;40769;51.512;5.494;2023-12-22T11:40:15;3.70;;;1.20;;
13807;SDS011;40769;51.512;5.494;2023-12-22T11:42:45;3.20;;;1.17;;
13807;SDS011;40769;51.512;5.494;2023-12-22T11:45:17;2.63;;;1.17;;
13807;SDS011;40769;51.512;5.494;2023-12-22T11:47:44;2.70;;;1.25;;
13807;SDS011;40769;51.512;5.494;2023-12-22T11:50:11;3.80;;;1.50;;
13807;SDS011;40769;51.512;5.494;2023-12-22T11:52:37;4.00;;;1.35;;
13807;SDS011;40769;51.512;5.494;2023-12-22T11:55:04;4.03;;;1.50;;
13807;SDS011;40769;51.512;5.494;2023-12-22T11:57:31;3.55;;;1.45;;
13807;SDS011;40769;51.512;5.494;2023-12-22T12:02:33;2.70;;;1.25;;
13807;SDS011;40769;51.512;5.494;2023-12-22T12:05:00;3.08;;;1.52;;
13807;SDS011;40769;51.512;5.494;2023-12-22T12:07:43;3.63;;;1.65;;
13807;SDS011;40769;51.512;5.494;2023-12-22T12:13:11;3.72;;;1.45;;
13807;SDS011;40769;51.512;5.494;2023-12-22T12:15:40;2.92;;;1.52;;
13807;SDS011;40769;51.512;5.494;2023-12-22T12:18:07;1.77;;;1.10;;
13807;SDS011;40769;51.512;5.494;2023-12-22T12:20:33;2.70;;;1.55;;
13807;SDS011;40769;51.512;5.494;2023-12-22T12:23:03;6.60;;;1.67;;
13807;SDS011;40769;51.512;5.494;2023-12-22T12:25:30;4.60;;;1.55;;
13807;SDS011;40769;51.512;5.494;2023-12-22T12:28:01;4.78;;;1.60;;
13807;SDS011;40769;51.512;5.494;2023-12-22T12:30:27;3.38;;;1.40;;
13807;SDS011;40769;51.512;5.494;2023-12-22T12:32:53;4.32;;;1.63;;
13807;SDS011;40769;51.512;5.494;2023-12-22T12:35:19;3.53;;;1.30;;
13807;SDS011;40769;51.512;5.494;2023-12-22T12:37:47;3.50;;;1.30;;
13807;SDS011;40769;51.512;5.494;2023-12-22T12:40:12;4.35;;;1.60;;
13807;SDS011;40769;51.512;5.494;2023-12-22T12:42:44;3.25;;;1.30;;
13807;SDS011;40769;51.512;5.494;2023-12-22T12:45:10;4.30;;;1.42;;
13807;SDS011;40769;51.512;5.494;2023-12-22T12:47:38;2.80;;;1.30;;
13807;SDS011;40769;51.512;5.494;2023-12-22T12:50:03;3.47;;;1.38;;
13807;SDS011;40769;51.512;5.494;2023-12-22T12:52:29;5.20;;;1.65;;
13807;SDS011;40769;51.512;5.494;2023-12-22T12:54:55;3.47;;;1.40;;
13807;SDS011;40769;51.512;5.494;2023-12-22T12:57:23;4.20;;;1.20;;
13807;SDS011;40769;51.512;5.494;2023-12-22T12:59:49;3.83;;;1.35;;
13807;SDS011;40769;51.512;5.494;2023-12-22T13:02:18;3.15;;;1.30;;
13807;SDS011;40769;51.512;5.494;2023-12-22T13:04:48;2.22;;;1.10;;
13807;SDS011;40769;51.512;5.494;2023-12-22T13:07:22;5.22;;;1.45;;
13807;SDS011;40769;51.512;5.494;2023-12-22T13:09:49;4.88;;;1.50;;
13807;SDS011;40769;51.512;5.494;2023-12-22T13:12:15;3.88;;;1.40;;
13807;SDS011;40769;51.512;5.494;2023-12-22T13:14:41;4.03;;;1.58;;
13807;SDS011;40769;51.512;5.494;2023-12-22T13:17:08;2.85;;;1.40;;
13807;SDS011;40769;51.512;5.494;2023-12-22T13:19:35;3.92;;;1.35;;
13807;SDS011;40769;51.512;5.494;2023-12-22T13:22:00;3.08;;;1.23;;
13807;SDS011;40769;51.512;5.494;2023-12-22T13:24:26;2.58;;;1.40;;
13807;SDS011;40769;51.512;5.494;2023-12-22T13:27:03;3.03;;;1.10;;
13807;SDS011;40769;51.512;5.494;2023-12-22T13:29:44;4.15;;;2.10;;
13807;SDS011;40769;51.512;5.494;2023-12-22T13:32:17;5.00;;;1.88;;
13807;SDS011;40769;51.512;5.494;2023-12-22T13:34:55;2.88;;;1.30;;
13807;SDS011;40769;51.512;5.494;2023-12-22T13:37:22;6.15;;;1.90;;
13807;SDS011;40769;51.512;5.494;2023-12-22T13:39:51;3.65;;;1.55;;
13807;SDS011;40769;51.512;5.494;2023-12-22T13:42:17;4.70;;;1.60;;
13807;SDS011;40769;51.512;5.494;2023-12-22T13:44:44;6.78;;;1.90;;
13807;SDS011;40769;51.512;5.494;2023-12-22T13:47:12;5.22;;;1.80;;
13807;SDS011;40769;51.512;5.494;2023-12-22T13:49:39;2.97;;;1.55;;
13807;SDS011;40769;51.512;5.494;2023-12-22T13:52:06;6.35;;;2.25;;
13807;SDS011;40769;51.512;5.494;2023-12-22T13:54:32;3.67;;;1.50;;
13807;SDS011;40769;51.512;5.494;2023-12-22T13:56:59;6.55;;;1.88;;
13807;SDS011;40769;51.512;5.494;2023-12-22T13:59:32;4.43;;;1.50;;
13807;SDS011;40769;51.512;5.494;2023-12-22T14:01:58;4.15;;;1.70;;
13807;SDS011;40769;51.512;5.494;2023-12-22T14:04:25;3.65;;;1.80;;
13807;SDS011;40769;51.512;5.494;2023-12-22T14:06:51;4.28;;;1.75;;
13807;SDS011;40769;51.512;5.494;2023-12-22T14:09:16;5.63;;;2.00;;
13807;SDS011;40769;51.512;5.494;2023-12-22T14:11:46;3.88;;;2.10;;
13807;SDS011;40769;51.512;5.494;2023-12-22T14:14:12;4.32;;;2.13;;
13807;SDS011;40769;51.512;5.494;2023-12-22T14:16:38;4.75;;;2.75;;
13807;SDS011;40769;51.512;5.494;2023-12-22T14:19:04;7.30;;;2.50;;
13807;SDS011;40769;51.512;5.494;2023-12-22T14:21:30;6.18;;;2.20;;
13807;SDS011;40769;51.512;5.494;2023-12-22T14:23:55;5.28;;;2.15;;
13807;SDS011;40769;51.512;5.494;2023-12-22T14:26:21;3.50;;;1.90;;
13807;SDS011;40769;51.512;5.494;2023-12-22T14:28:47;6.65;;;2.25;;
13807;SDS011;40769;51.512;5.494;2023-12-22T14:31:17;5.25;;;2.40;;
13807;SDS011;40769;51.512;5.494;2023-12-22T14:33:42;5.75;;;2.10;;
13807;SDS011;40769;51.512;5.494;2023-12-22T14:36:08;7.38;;;2.50;;
13807;SDS011;40769;51.512;5.494;2023-12-22T14:38:34;6.55;;;2.30;;
13807;SDS011;40769;51.512;5.494;2023-12-22T14:40:59;6.20;;;2.08;;
13807;SDS011;40769;51.512;5.494;2023-12-22T14:43:25;3.08;;;1.90;;
13807;SDS011;40769;51.512;5.494;2023-12-22T14:45:51;7.65;;;2.50;;
13807;SDS011;40769;51.512;5.494;2023-12-22T14:48:16;7.13;;;2.67;;
13807;SDS011;40769;51.512;5.494;2023-12-22T14:50:42;5.70;;;2.30;;
13807;SDS011;40769;51.512;5.494;2023-12-22T14:53:07;8.73;;;2.78;;
13807;SDS011;40769;51.512;5.494;2023-12-22T14:55:33;7.63;;;2.65;;